Time;durP1;ratioP1;P1;durP2;ratioP2;P2;SDS_P1;SDS_P2;PMS_P1;PMS_P2;Temp;Humidity;BMP_temperature;BMP_pressure;BME280_temperature;BME280_humidity;BME280_pressure;Samples;Min_cycle;Max_cycle;Signal;HPM_P1;HPM_P2
2021/07/30 00:08:50;;;;;;;13.77;6.03;;;15.70;99.90;;;;;;20759437;28;20041;-77
2021/07/30 00:18:51;;;;;;;12.07;5.60;;;15.70;99.90;;;;;;20775289;28;20037;-78
2021/07/30 00:28:51;;;;;;;8.80;5.83;;;15.50;99.90;;;;;;20767306;28;20045;-78
2021/07/30 00:38:52;;;;;;;8.20;4.70;;;15.40;99.90;;;;;;20749702;28;20427;-78
2021/07/30 00:48:53;;;;;;;11.40;5.57;;;15.40;99.90;;;;;;20763805;28;20040;-78
2021/07/30 00:58:55;;;;;;;9.97;6.07;;;15.30;99.90;;;;;;20765989;28;20033;-78
2021/07/30 01:08:56;;;;;;;8.73;5.93;;;15.30;99.90;;;;;;20764850;28;20062;-78
2021/07/30 01:18:57;;;;;;;8.97;4.93;;;15.40;99.90;;;;;;20762320;28;20065;-78
2021/07/30 01:28:58;;;;;;;10.07;6.07;;;15.30;99.90;;;;;;20760896;28;20037;-77
2021/07/30 01:38:59;;;;;;;10.33;5.47;;;15.40;99.90;;;;;;20761607;28;20030;-78
2021/07/30 01:48:59;;;;;;;10.83;6.57;;;15.40;99.90;;;;;;20758668;28;20562;-78
2021/07/30 01:59:01;;;;;;;11.43;6.47;;;15.20;99.90;;;;;;20756949;28;20029;-77
2021/07/30 02:09:02;;;;;;;7.40;5.05;;;14.80;99.90;;;;;;20762487;28;20030;-77
2021/07/30 02:19:03;;;;;;;9.77;5.13;;;14.90;99.90;;;;;;20766458;28;20044;-77
2021/07/30 02:29:04;;;;;;;7.23;4.87;;;14.90;99.90;;;;;;20759439;28;20026;-77
2021/07/30 02:39:05;;;;;;;10.57;5.70;;;14.70;99.90;;;;;;20754872;28;20033;-78
2021/07/30 02:49:06;;;;;;;14.00;6.63;;;14.50;99.90;;;;;;20811702;23;20053;-73
2021/07/30 02:59:07;;;;;;;11.40;7.53;;;14.60;99.90;;;;;;20825463;28;20034;-74
2021/07/30 03:09:08;;;;;;;12.60;6.60;;;14.50;99.90;;;;;;20825698;28;20029;-74
2021/07/30 03:19:08;;;;;;;11.97;6.23;;;14.40;99.90;;;;;;20823927;28;20033;-74
2021/07/30 03:29:09;;;;;;;9.93;5.93;;;14.20;99.90;;;;;;20826325;28;20044;-74
2021/07/30 03:39:10;;;;;;;9.07;6.13;;;14.10;99.90;;;;;;20809786;28;20052;-74
2021/07/30 03:49:11;;;;;;;8.73;5.67;;;14.40;99.90;;;;;;20838194;28;20495;-74
2021/07/30 03:59:12;;;;;;;10.33;5.40;;;14.60;99.90;;;;;;20841271;28;20110;-74
2021/07/30 04:09:16;;;;;;;10.53;5.60;;;14.50;99.90;;;;;;20840894;28;20488;-74
2021/07/30 04:19:17;;;;;;;9.48;4.85;;;14.50;99.90;;;;;;20823056;28;20731;-75
2021/07/30 04:29:17;;;;;;;8.47;5.13;;;14.50;99.90;;;;;;20839498;28;20029;-74
2021/07/30 04:39:18;;;;;;;9.53;4.93;;;14.40;99.90;;;;;;20840007;28;20156;-74
2021/07/30 04:49:19;;;;;;;8.23;4.60;;;14.60;99.90;;;;;;20838620;28;20029;-74
2021/07/30 04:59:20;;;;;;;6.37;4.60;;;14.80;99.90;;;;;;20836477;28;20032;-74
2021/07/30 05:09:21;;;;;;;7.97;4.63;;;15.00;99.90;;;;;;20837341;28;20108;-74
2021/07/30 05:19:21;;;;;;;9.60;5.00;;;15.20;99.90;;;;;;20833816;28;20383;-74
2021/07/30 05:29:22;;;;;;;18.07;7.47;;;15.50;99.90;;;;;;20832779;28;20026;-74
2021/07/30 05:39:23;;;;;;;11.53;7.30;;;15.90;99.90;;;;;;20832021;28;20442;-73
2021/07/30 05:49:24;;;;;;;14.03;6.10;;;16.00;99.90;;;;;;20832155;28;20049;-75
2021/07/30 05:59:27;;;;;;;12.17;7.10;;;16.40;99.90;;;;;;20828068;28;20065;-75
2021/07/30 06:09:27;;;;;;;10.93;7.28;;;16.70;99.90;;;;;;20828818;28;20167;-75
2021/07/30 06:19:28;;;;;;;10.67;6.10;;;17.10;99.90;;;;;;20828139;28;20072;-76
2021/07/30 06:29:29;;;;;;;11.57;6.70;;;17.70;99.90;;;;;;20834594;28;20029;-76
2021/07/30 06:39:30;;;;;;;11.60;6.13;;;18.10;99.90;;;;;;20827148;28;20040;-76
2021/07/30 06:49:36;;;;;;;19.67;6.40;;;18.80;99.90;;;;;;20826632;28;20399;-76
2021/07/30 06:59:37;;;;;;;8.32;5.90;;;19.20;99.90;;;;;;20825825;28;20037;-75
2021/07/30 07:09:38;;;;;;;9.43;5.70;;;19.00;99.90;;;;;;20825266;28;20034;-76
2021/07/30 07:19:39;;;;;;;12.60;6.67;;;19.00;99.90;;;;;;20827377;28;20416;-75
2021/07/30 07:29:40;;;;;;;9.90;6.27;;;20.00;99.90;;;;;;20845158;28;20105;-76
2021/07/30 07:39:40;;;;;;;10.30;5.90;;;19.70;99.90;;;;;;20840874;28;20091;-77
2021/07/30 07:49:41;;;;;;;11.00;5.63;;;19.60;99.90;;;;;;20838755;28;20381;-78
2021/07/30 07:59:42;;;;;;;7.47;5.47;;;20.30;99.90;;;;;;20837751;28;20038;-75
2021/07/30 08:09:44;;;;;;;10.43;5.13;;;21.00;99.90;;;;;;20838574;28;20496;-76
2021/07/30 08:19:50;;;;;;;9.63;5.68;;;21.20;99.90;;;;;;20837649;28;20040;-76
2021/07/30 08:29:51;;;;;;;7.68;5.30;;;22.10;99.90;;;;;;20892244;28;20495;-75
2021/07/30 08:39:52;;;;;;;6.93;5.20;;;22.50;99.90;;;;;;20901720;28;20094;-76
2021/07/30 08:49:53;;;;;;;8.23;4.83;;;23.30;99.90;;;;;;20893490;22;20145;-79
2021/07/30 08:59:54;;;;;;;7.20;5.03;;;23.60;99.90;;;;;;20840334;28;20107;-77
2021/07/30 09:09:56;;;;;;;9.70;5.18;;;24.30;99.90;;;;;;20824487;28;20279;-78
2021/07/30 09:20:02;;;;;;;9.80;5.05;;;25.90;99.90;;;;;;20787879;28;20037;-78
2021/07/30 09:30:13;;;;;;;7.60;4.53;;;26.30;99.90;;;;;;20828082;28;20521;-79
2021/07/30 09:40:21;;;;;;;9.95;4.57;;;26.30;99.90;;;;;;20803714;28;20087;-78
2021/07/30 09:50:22;;;;;;;9.10;5.53;;;25.90;99.90;;;;;;20819943;28;20045;-80
2021/07/30 10:00:23;;;;;;;5.88;4.47;;;26.40;99.90;;;;;;20818893;28;20397;-77
2021/07/30 10:10:28;;;;;;;10.73;5.43;;;27.70;99.90;;;;;;20817826;28;20111;-81
2021/07/30 10:20:30;;;;;;;11.68;5.75;;;28.00;99.90;;;;;;20782305;28;20163;-79
2021/07/30 10:31:07;;;;;;;7.88;5.03;;;27.80;99.90;;;;;;20788588;28;20789;-80
2021/07/30 10:41:08;;;;;;;6.30;4.60;;;28.10;99.90;;;;;;20816612;28;20056;-81
2021/07/30 10:51:18;;;;;;;7.07;4.72;;;28.80;99.90;;;;;;20810841;28;20037;-76
2021/07/30 11:01:39;;;;;;;10.13;5.03;;;28.60;99.90;;;;;;20800706;28;20029;-80
2021/07/30 11:12:03;;;;;;;6.13;4.60;;;28.50;99.90;;;;;;20798400;28;20037;-80
2021/07/30 11:22:06;;;;;;;7.20;4.90;;;28.60;99.90;;;;;;20819614;28;20030;-77
2021/07/30 11:32:08;;;;;;;12.07;5.20;;;28.30;99.90;;;;;;20816755;28;20095;-80
2021/07/30 11:42:14;;;;;;;8.23;5.15;;;27.90;99.90;;;;;;20820575;28;20029;-77
2021/07/30 11:52:21;;;;;;;6.72;5.10;;;28.10;99.90;;;;;;20800676;28;20516;-78
2021/07/30 12:02:27;;;;;;;7.70;5.30;;;28.20;99.90;;;;;;20815796;28;20457;-80
2021/07/30 12:12:32;;;;;;;7.70;5.80;;;28.20;99.90;;;;;;20804961;28;20040;-77
2021/07/30 12:22:44;;;;;;;7.55;5.35;;;28.70;99.90;;;;;;20825617;28;20037;-80
2021/07/30 12:32:45;;;;;;;5.65;4.30;;;29.30;99.90;;;;;;20825967;28;20569;-81
2021/07/30 12:42:46;;;;;;;11.75;5.40;;;30.20;99.90;;;;;;20809820;28;20059;-77
2021/07/30 12:53:02;;;;;;;7.75;5.40;;;29.40;99.90;;;;;;20824805;28;20068;-80
2021/07/30 13:03:03;;;;;;;7.32;5.32;;;29.40;99.90;;;;;;20825819;28;20041;-80
2021/07/30 13:13:04;;;;;;;6.78;5.13;;;29.50;99.90;;;;;;20825891;28;20094;-81
2021/07/30 13:23:05;;;;;;;6.72;4.93;;;29.40;99.90;;;;;;20803401;28;20052;-80
2021/07/30 13:33:07;;;;;;;8.35;5.00;;;28.50;99.90;;;;;;20820951;28;20095;-77
2021/07/30 13:43:08;;;;;;;9.40;5.65;;;27.60;99.90;;;;;;20820790;28;20103;-78
2021/07/30 13:53:09;;;;;;;13.75;6.00;;;27.40;99.90;;;;;;20826415;28;20410;-77
2021/07/30 14:03:10;;;;;;;7.82;5.45;;;26.40;99.90;;;;;;20803474;28;20418;-79
2021/07/30 14:13:11;;;;;;;11.60;6.70;;;25.60;99.90;;;;;;20824891;28;20398;-77
2021/07/30 14:23:13;;;;;;;14.90;7.80;;;24.70;99.90;;;;;;20828325;28;20060;-77
2021/07/30 14:33:14;;;;;;;7.18;4.53;;;23.20;99.90;;;;;;20810792;28;20033;-75
2021/07/30 14:43:16;;;;;;;5.40;3.10;;;20.70;99.90;;;;;;20826546;28;20029;-79
2021/07/30 14:53:16;;;;;;;6.23;3.50;;;20.20;99.90;;;;;;20819637;22;20324;-74
2021/07/30 15:03:17;;;;;;;4.40;2.73;;;20.20;99.90;;;;;;20802985;28;20446;-76
2021/07/30 15:13:18;;;;;;;3.57;2.40;;;20.60;99.90;;;;;;20783289;28;20570;-75
2021/07/30 15:23:19;;;;;;;4.43;2.73;;;20.50;99.90;;;;;;20800392;28;20384;-74
2021/07/30 15:33:20;;;;;;;4.23;2.40;;;21.20;99.90;;;;;;20800856;28;20088;-75
2021/07/30 15:43:20;;;;;;;5.83;3.50;;;21.70;99.90;;;;;;20805951;28;20419;-75
2021/07/30 15:53:21;;;;;;;6.17;4.37;;;20.80;99.90;;;;;;20814714;28;20427;-75
2021/07/30 16:03:22;;;;;;;8.17;4.87;;;21.00;99.90;;;;;;20818394;28;20033;-73
2021/07/30 16:13:23;;;;;;;8.27;5.80;;;20.70;99.90;;;;;;20818002;28;20032;-75
2021/07/30 16:23:24;;;;;;;7.43;5.60;;;20.50;99.90;;;;;;20799933;28;20094;-75
2021/07/30 16:33:25;;;;;;;9.20;6.37;;;20.40;99.90;;;;;;20817190;28;20435;-75
2021/07/30 16:43:26;;;;;;;10.80;7.33;;;20.40;99.90;;;;;;20822063;28;20029;-76
2021/07/30 16:53:27;;;;;;;12.27;7.87;;;20.40;99.90;;;;;;20816600;28;20535;-76
2021/07/30 17:03:28;;;;;;;13.77;8.73;;;20.30;99.90;;;;;;20834568;28;20691;-77
2021/07/30 17:13:29;;;;;;;11.40;8.17;;;20.20;99.90;;;;;;20833478;28;20064;-76
2021/07/30 17:23:30;;;;;;;13.07;9.05;;;20.10;99.90;;;;;;20832641;28;20049;-76
2021/07/30 17:33:31;;;;;;;11.40;9.20;;;20.00;99.90;;;;;;20814314;28;20453;-77
2021/07/30 17:43:32;;;;;;;11.70;8.27;;;20.10;99.90;;;;;;20831007;28;20022;-76
2021/07/30 17:53:33;;;;;;;18.83;9.10;;;20.10;99.90;;;;;;20830356;28;20042;-77
2021/07/30 18:03:34;;;;;;;15.13;8.37;;;20.00;99.90;;;;;;20811722;28;20395;-77
2021/07/30 18:13:35;;;;;;;12.37;8.33;;;19.80;99.90;;;;;;20811826;28;20034;-77
2021/07/30 18:23:36;;;;;;;15.83;9.10;;;19.90;99.90;;;;;;20828275;28;20040;-77
2021/07/30 18:33:37;;;;;;;12.23;8.53;;;19.80;99.90;;;;;;20825130;28;20491;-76
2021/07/30 18:43:38;;;;;;;12.63;9.20;;;19.70;99.90;;;;;;20825883;28;20033;-76
2021/07/30 18:53:38;;;;;;;22.03;11.10;;;19.70;99.90;;;;;;20826007;28;20558;-77
2021/07/30 19:04:04;;;;;;;15.82;9.45;;;19.40;99.90;;;;;;20812274;28;20469;-77
2021/07/30 19:14:05;;;;;;;15.00;7.90;;;19.20;99.90;;;;;;20824136;28;20045;-77
2021/07/30 19:24:06;;;;;;;13.37;7.40;;;18.80;99.90;;;;;;20824108;28;20025;-76
2021/07/30 19:34:07;;;;;;;11.93;7.57;;;18.70;99.90;;;;;;20806373;28;20033;-74
2021/07/30 19:44:08;;;;;;;10.88;6.65;;;18.50;99.90;;;;;;20805784;28;20037;-75
2021/07/30 19:54:10;;;;;;;12.70;6.88;;;18.40;99.90;;;;;;20822952;28;20084;-75
2021/07/30 20:04:11;;;;;;;12.67;7.50;;;18.30;99.90;;;;;;20822828;28;20033;-75
2021/07/30 20:14:12;;;;;;;9.27;6.87;;;18.30;99.90;;;;;;20805013;28;20508;-75
2021/07/30 20:24:13;;;;;;;11.80;7.60;;;18.20;99.90;;;;;;20821908;28;20041;-76
2021/07/30 20:34:14;;;;;;;17.93;9.53;;;17.90;99.90;;;;;;20817493;28;20424;-76
2021/07/30 20:54:20;;;;;;;17.38;7.40;;;17.80;99.90;;;;;;20674411;28;20117;-87
2021/07/30 21:04:21;;;;;;;15.00;7.80;;;17.70;99.90;;;;;;20678719;28;20039;-85
2021/07/30 21:14:22;;;;;;;14.00;7.83;;;17.60;99.90;;;;;;20675850;28;20034;-87
2021/07/30 21:24:22;;;;;;;16.10;10.10;;;17.60;99.90;;;;;;20658508;28;20073;-86
2021/07/30 21:34:23;;;;;;;16.33;7.93;;;17.50;99.90;;;;;;20658328;28;20133;-87
2021/07/30 21:44:24;;;;;;;10.87;7.40;;;17.60;99.90;;;;;;20656193;28;20491;-86
2021/07/30 21:54:25;;;;;;;12.57;7.87;;;17.50;99.90;;;;;;20655380;28;20456;-86
2021/07/30 22:04:26;;;;;;;15.30;7.67;;;17.50;99.90;;;;;;20673117;28;20039;-86
2021/07/30 22:14:27;;;;;;;14.50;9.00;;;17.50;99.90;;;;;;20657011;28;20544;-86
2021/07/30 22:24:28;;;;;;;15.27;9.43;;;17.50;99.90;;;;;;20655023;28;20081;-87
2021/07/30 22:34:29;;;;;;;15.32;9.02;;;17.30;99.90;;;;;;20655019;28;20030;-86
2021/07/30 22:44:30;;;;;;;15.60;8.93;;;17.40;99.90;;;;;;20655481;28;20618;-85
2021/07/30 22:54:34;;;;;;;22.27;9.23;;;17.50;99.90;;;;;;20658023;28;20053;-86
2021/07/30 23:04:35;;;;;;;13.63;9.32;;;17.40;99.90;;;;;;20681093;23;20018;-77
2021/07/30 23:14:35;;;;;;;11.50;8.07;;;17.40;99.90;;;;;;20806385;28;20565;-74
2021/07/30 23:24:36;;;;;;;11.17;7.07;;;17.30;99.90;;;;;;20824778;28;20111;-74
2021/07/30 23:34:37;;;;;;;27.80;10.67;;;17.40;99.90;;;;;;20807096;28;20029;-74
2021/07/30 23:44:38;;;;;;;23.67;9.07;;;17.30;99.90;;;;;;20824146;28;20048;-76
2021/07/30 23:54:39;;;;;;;21.57;8.47;;;17.30;99.90;;;;;;20823989;28;20029;-76
